Tama, Iowa
Current Conditions -  °F | °C
As of 10:15 PM on Friday 19 Dec 2014 (Local Time) from KGGI Reporting Station
Overcast Overcast  
Wind Chill: 21°   Ceiling: 1200
Heat Index: 29°   Visibility: 7mi
Dew Point: 26°   Wind: 8mph
Humidity: 90%   Direction: 150°SSE
Pressure: 30.21"   Gusts: NA
Location:  41.97°N, 92.58°W
Report Text: KGGI 200415Z AUTO 15007KT 7SM OVC012 M02/M03 A3021 RMK AO2 T10161031
Loading
Personal Weather Stations






























Interactive Weather Map New forecast layout! Learn more

10-Day Weather Forecast

Advertisements
Track Severe Weather on mobile